Mesa.AZweather.com - Mesa, AZ
   Red Mountain Frwy and University Dr., El 1518 ft.
       --- Thursday  Nov. 8, 2018 ---
 
 High Temperature ..  81F at 15:52
 Low Temperature ...  50F at 05:54
 
 High Humidity .....  64% at 07:35
 Low Humidity ......  15% at 23:22
 
 Rainfall Total ....  0.00 in.
 
 High Wind Speed ... ---
                     
 
 High Barometer ....  30.02 at 22:37
 Low Barometer .....  29.9 at 02:40
 
Dew Point    High .... 45   Low ..... 16
 
 
 Time   Temp  Humi  Rain     Baro  DewPt  Wind
00:00,  56F, 51%, 0.00 in, 29.92, 38F, ---
00:30,  56F, 51%, 0.00 in, 29.91, 38F, ---
01:00,  56F, 51%, 0.00 in, 29.92, 38F, ---
01:30,  55F, 52%, 0.00 in, 29.91, 38F, ---
02:00,  55F, 52%, 0.00 in, 29.91, 38F, ---
02:30,  55F, 52%, 0.00 in, 29.91, 38F, ---
03:00,  54F, 52%, 0.00 in, 29.91, 36F, ---
03:30,  54F, 53%, 0.00 in, 29.91, 37F, ---
04:00,  53F, 56%, 0.00 in, 29.91, 38F, ---
04:30,  52F, 58%, 0.00 in, 29.91, 38F, ---
05:00,  51F, 60%, 0.00 in, 29.92, 38F, ---
05:30,  51F, 61%, 0.00 in, 29.91, 39F, ---
06:00,  51F, 62%, 0.00 in, 29.92, 39F, ---
06:30,  51F, 62%, 0.00 in, 29.92, 39F, ---
07:00,  50F, 62%, 0.00 in, 29.92, 38F, ---
07:30,  50F, 63%, 0.00 in, 29.93, 38F, ---
08:00,  53F, 62%, 0.00 in, 29.94, 41F, ---
08:30,  57F, 56%, 0.00 in, 29.95, 42F, ---
09:00,  63F, 49%, 0.00 in, 29.96, 43F, ---
09:30,  65F, 43%, 0.00 in, 29.97, 41F, ---
10:00,  67F, 40%, 0.00 in, 29.96, 41F, ---
10:30,  70F, 34%, 0.00 in, 29.97, 40F, ---
11:00,  73F, 31%, 0.00 in, 29.96, 41F, ---
11:30,  75F, 30%, 0.00 in, 29.96, 42F, ---
12:00,  77F, 28%, 0.00 in, 29.95, 41F, ---
12:30,  76F, 27%, 0.00 in, 29.93, 39F, ---
13:00,  77F, 27%, 0.00 in, 29.92, 40F, ---
13:30,  78F, 27%, 0.00 in, 29.92, 42F, ---
14:00,  78F, 27%, 0.00 in, 29.91, 42F, ---
14:30,  79F, 27%, 0.00 in, 29.90, 42F, ---
15:00,  79F, 27%, 0.00 in, 29.90, 42F, ---
15:30,  79F, 26%, 0.00 in, 29.90, 41F, ---
16:00,  81F, 26%, 0.00 in, 29.91, 43F, ---
16:30,  78F, 26%, 0.00 in, 29.91, 41F, ---
17:00,  77F, 27%, 0.00 in, 29.91, 40F, ---
17:30,  74F, 29%, 0.00 in, 29.92, 39F, ---
18:00,  72F, 32%, 0.00 in, 29.93, 40F, ---
18:30,  69F, 36%, 0.00 in, 29.94, 42F, ---
19:00,  65F, 39%, 0.00 in, 29.95, 39F, ---
19:30,  64F, 42%, 0.00 in, 29.95, 41F, ---
20:00,  64F, 42%, 0.00 in, 29.97, 41F, ---
20:30,  65F, 35%, 0.00 in, 29.97, 36F, ---
21:00,  67F, 25%, 0.00 in, 29.98, 29F, ---
21:30,  68F, 21%, 0.00 in, 29.99, 27F, ---
22:00,  68F, 20%, 0.00 in, 30.00, 25F, ---
22:30,  68F, 18%, 0.00 in, 30.01, 23F, ---
23:00,  67F, 16%, 0.00 in, 30.01, 19F, ---
23:30,  66F, 15%, 0.00 in, 30.01, 17F, ---
23:59,  65F, 15%, 0.00 in, 30.01, 16F, ---